sensor_id;sensor_type;location;lat;lon;timestamp;P1;durP1;ratioP1;P2;durP2;ratioP2
17173;SDS011;8702;48.130;-1.696;2022-11-12T00:01:40;12.75;;;11.45;;
17173;SDS011;8702;48.130;-1.696;2022-11-12T00:04:07;14.07;;;12.25;;
17173;SDS011;8702;48.130;-1.696;2022-11-12T00:06:36;12.50;;;11.27;;
17173;SDS011;8702;48.130;-1.696;2022-11-12T00:09:03;11.85;;;10.60;;
17173;SDS011;8702;48.130;-1.696;2022-11-12T00:11:30;13.13;;;11.23;;
17173;SDS011;8702;48.130;-1.696;2022-11-12T00:13:57;12.27;;;11.07;;
17173;SDS011;8702;48.130;-1.696;2022-11-12T00:16:23;12.95;;;10.85;;
17173;SDS011;8702;48.130;-1.696;2022-11-12T00:18:51;14.43;;;11.35;;
17173;SDS011;8702;48.130;-1.696;2022-11-12T00:21:18;11.85;;;10.63;;
17173;SDS011;8702;48.130;-1.696;2022-11-12T00:23:47;11.13;;;10.05;;
17173;SDS011;8702;48.130;-1.696;2022-11-12T00:26:14;12.95;;;10.60;;
17173;SDS011;8702;48.130;-1.696;2022-11-12T00:28:41;12.13;;;10.60;;
17173;SDS011;8702;48.130;-1.696;2022-11-12T00:31:08;12.35;;;10.50;;
17173;SDS011;8702;48.130;-1.696;2022-11-12T00:33:39;10.85;;;9.75;;
17173;SDS011;8702;48.130;-1.696;2022-11-12T00:36:07;11.07;;;9.97;;
17173;SDS011;8702;48.130;-1.696;2022-11-12T00:38:34;12.33;;;10.13;;
17173;SDS011;8702;48.130;-1.696;2022-11-12T00:41:03;10.80;;;9.80;;
17173;SDS011;8702;48.130;-1.696;2022-11-12T00:43:30;11.97;;;9.90;;
17173;SDS011;8702;48.130;-1.696;2022-11-12T00:45:57;11.50;;;9.98;;
17173;SDS011;8702;48.130;-1.696;2022-11-12T00:48:24;11.70;;;9.63;;
17173;SDS011;8702;48.130;-1.696;2022-11-12T00:50:57;12.25;;;10.15;;
17173;SDS011;8702;48.130;-1.696;2022-11-12T00:53:25;11.70;;;10.10;;
17173;SDS011;8702;48.130;-1.696;2022-11-12T00:55:52;11.03;;;9.93;;
17173;SDS011;8702;48.130;-1.696;2022-11-12T00:58:26;11.75;;;10.48;;
17173;SDS011;8702;48.130;-1.696;2022-11-12T01:00:54;13.23;;;10.32;;
17173;SDS011;8702;48.130;-1.696;2022-11-12T01:03:21;11.57;;;10.43;;
17173;SDS011;8702;48.130;-1.696;2022-11-12T01:05:48;10.52;;;9.52;;
17173;SDS011;8702;48.130;-1.696;2022-11-12T01:08:15;10.23;;;9.23;;
17173;SDS011;8702;48.130;-1.696;2022-11-12T01:10:42;10.70;;;9.50;;
17173;SDS011;8702;48.130;-1.696;2022-11-12T01:13:08;11.33;;;10.23;;
17173;SDS011;8702;48.130;-1.696;2022-11-12T01:15:40;11.13;;;10.02;;
17173;SDS011;8702;48.130;-1.696;2022-11-12T01:18:07;10.80;;;9.70;;
17173;SDS011;8702;48.130;-1.696;2022-11-12T01:20:36;11.13;;;10.02;;
17173;SDS011;8702;48.130;-1.696;2022-11-12T01:23:03;10.68;;;9.48;;
17173;SDS011;8702;48.130;-1.696;2022-11-12T01:25:30;10.13;;;9.10;;
17173;SDS011;8702;48.130;-1.696;2022-11-12T01:27:57;10.50;;;9.40;;
17173;SDS011;8702;48.130;-1.696;2022-11-12T01:30:24;12.38;;;9.52;;
17173;SDS011;8702;48.130;-1.696;2022-11-12T01:32:52;11.07;;;9.93;;
17173;SDS011;8702;48.130;-1.696;2022-11-12T01:35:19;11.55;;;10.27;;
17173;SDS011;8702;48.130;-1.696;2022-11-12T01:37:46;11.70;;;10.50;;
17173;SDS011;8702;48.130;-1.696;2022-11-12T01:40:14;11.75;;;10.10;;
17173;SDS011;8702;48.130;-1.696;2022-11-12T01:42:41;12.13;;;9.63;;
17173;SDS011;8702;48.130;-1.696;2022-11-12T01:45:11;12.40;;;10.55;;
17173;SDS011;8702;48.130;-1.696;2022-11-12T01:47:40;11.07;;;9.98;;
17173;SDS011;8702;48.130;-1.696;2022-11-12T01:50:13;11.18;;;9.25;;
17173;SDS011;8702;48.130;-1.696;2022-11-12T01:52:46;11.40;;;9.47;;
17173;SDS011;8702;48.130;-1.696;2022-11-12T01:55:16;10.48;;;9.38;;
17173;SDS011;8702;48.130;-1.696;2022-11-12T01:57:49;12.90;;;9.90;;
17173;SDS011;8702;48.130;-1.696;2022-11-12T02:00:20;12.80;;;10.18;;
17173;SDS011;8702;48.130;-1.696;2022-11-12T02:02:50;10.95;;;9.80;;
17173;SDS011;8702;48.130;-1.696;2022-11-12T02:05:21;11.25;;;10.13;;
17173;SDS011;8702;48.130;-1.696;2022-11-12T02:07:49;12.40;;;9.68;;
17173;SDS011;8702;48.130;-1.696;2022-11-12T02:10:16;11.45;;;10.10;;
17173;SDS011;8702;48.130;-1.696;2022-11-12T02:12:44;11.75;;;10.25;;
17173;SDS011;8702;48.130;-1.696;2022-11-12T02:15:29;11.75;;;10.55;;
17173;SDS011;8702;48.130;-1.696;2022-11-12T02:17:56;11.65;;;10.07;;
17173;SDS011;8702;48.130;-1.696;2022-11-12T02:20:24;11.35;;;9.90;;
17173;SDS011;8702;48.130;-1.696;2022-11-12T02:22:53;10.63;;;9.52;;
17173;SDS011;8702;48.130;-1.696;2022-11-12T02:25:20;10.98;;;9.77;;
17173;SDS011;8702;48.130;-1.696;2022-11-12T02:27:49;10.88;;;9.75;;
17173;SDS011;8702;48.130;-1.696;2022-11-12T02:30:18;12.55;;;10.43;;
17173;SDS011;8702;48.130;-1.696;2022-11-12T02:32:55;13.30;;;10.50;;
17173;SDS011;8702;48.130;-1.696;2022-11-12T02:35:22;13.32;;;11.20;;
17173;SDS011;8702;48.130;-1.696;2022-11-12T02:37:49;12.98;;;11.68;;
17173;SDS011;8702;48.130;-1.696;2022-11-12T02:40:18;12.82;;;10.88;;
17173;SDS011;8702;48.130;-1.696;2022-11-12T02:42:45;13.23;;;10.75;;
17173;SDS011;8702;48.130;-1.696;2022-11-12T02:45:12;11.87;;;10.63;;
17173;SDS011;8702;48.130;-1.696;2022-11-12T02:47:40;10.85;;;9.80;;
17173;SDS011;8702;48.130;-1.696;2022-11-12T02:50:07;13.43;;;10.70;;
17173;SDS011;8702;48.130;-1.696;2022-11-12T02:52:35;11.07;;;9.75;;
17173;SDS011;8702;48.130;-1.696;2022-11-12T02:55:04;11.33;;;10.17;;
17173;SDS011;8702;48.130;-1.696;2022-11-12T02:57:33;10.95;;;9.85;;
17173;SDS011;8702;48.130;-1.696;2022-11-12T03:00:01;10.90;;;9.75;;
17173;SDS011;8702;48.130;-1.696;2022-11-12T03:02:28;11.00;;;9.90;;
17173;SDS011;8702;48.130;-1.696;2022-11-12T03:04:55;10.63;;;9.52;;
17173;SDS011;8702;48.130;-1.696;2022-11-12T03:07:22;11.77;;;10.05;;
17173;SDS011;8702;48.130;-1.696;2022-11-12T03:09:49;10.95;;;9.85;;
17173;SDS011;8702;48.130;-1.696;2022-11-12T03:12:16;10.70;;;9.70;;
17173;SDS011;8702;48.130;-1.696;2022-11-12T03:14:44;10.27;;;9.27;;
17173;SDS011;8702;48.130;-1.696;2022-11-12T03:17:11;11.45;;;8.93;;
17173;SDS011;8702;48.130;-1.696;2022-11-12T03:19:38;10.52;;;9.43;;
17173;SDS011;8702;48.130;-1.696;2022-11-12T03:22:05;10.63;;;9.53;;
17173;SDS011;8702;48.130;-1.696;2022-11-12T03:24:32;10.45;;;9.45;;
17173;SDS011;8702;48.130;-1.696;2022-11-12T03:26:59;10.43;;;9.32;;
17173;SDS011;8702;48.130;-1.696;2022-11-12T03:29:26;10.75;;;9.13;;
17173;SDS011;8702;48.130;-1.696;2022-11-12T03:31:54;9.43;;;8.60;;
17173;SDS011;8702;48.130;-1.696;2022-11-12T03:34:23;10.00;;;9.00;;
17173;SDS011;8702;48.130;-1.696;2022-11-12T03:36:53;10.40;;;9.40;;
17173;SDS011;8702;48.130;-1.696;2022-11-12T03:39:19;9.90;;;8.90;;
17173;SDS011;8702;48.130;-1.696;2022-11-12T03:41:48;10.27;;;9.27;;
17173;SDS011;8702;48.130;-1.696;2022-11-12T03:44:16;10.85;;;9.43;;
17173;SDS011;8702;48.130;-1.696;2022-11-12T03:46:45;9.52;;;8.55;;
17173;SDS011;8702;48.130;-1.696;2022-11-12T03:49:15;9.52;;;8.52;;
17173;SDS011;8702;48.130;-1.696;2022-11-12T03:51:42;10.50;;;9.45;;
17173;SDS011;8702;48.130;-1.696;2022-11-12T03:54:09;9.93;;;8.93;;
17173;SDS011;8702;48.130;-1.696;2022-11-12T03:56:39;10.90;;;9.70;;
17173;SDS011;8702;48.130;-1.696;2022-11-12T03:59:06;10.45;;;9.38;;
17173;SDS011;8702;48.130;-1.696;2022-11-12T04:01:33;11.18;;;9.55;;
17173;SDS011;8702;48.130;-1.696;2022-11-12T04:04:00;11.27;;;9.65;;
17173;SDS011;8702;48.130;-1.696;2022-11-12T04:06:31;10.85;;;9.73;;
17173;SDS011;8702;48.130;-1.696;2022-11-12T04:09:27;11.40;;;9.40;;
17173;SDS011;8702;48.130;-1.696;2022-11-12T04:11:54;11.68;;;9.68;;
17173;SDS011;8702;48.130;-1.696;2022-11-12T04:14:41;10.60;;;9.50;;
17173;SDS011;8702;48.130;-1.696;2022-11-12T04:17:06;10.73;;;9.57;;
17173;SDS011;8702;48.130;-1.696;2022-11-12T04:19:53;10.10;;;9.10;;
17173;SDS011;8702;48.130;-1.696;2022-11-12T04:22:39;9.88;;;8.88;;
17173;SDS011;8702;48.130;-1.696;2022-11-12T04:25:07;11.60;;;9.40;;
17173;SDS011;8702;48.130;-1.696;2022-11-12T04:27:51;9.57;;;8.60;;
17173;SDS011;8702;48.130;-1.696;2022-11-12T04:30:18;9.68;;;8.70;;
17173;SDS011;8702;48.130;-1.696;2022-11-12T04:32:45;9.98;;;8.90;;
17173;SDS011;8702;48.130;-1.696;2022-11-12T04:35:15;9.53;;;8.53;;
17173;SDS011;8702;48.130;-1.696;2022-11-12T04:37:44;9.63;;;8.70;;
17173;SDS011;8702;48.130;-1.696;2022-11-12T04:40:12;11.70;;;9.63;;
17173;SDS011;8702;48.130;-1.696;2022-11-12T04:42:58;10.00;;;9.00;;
17173;SDS011;8702;48.130;-1.696;2022-11-12T04:45:44;10.80;;;9.40;;
17173;SDS011;8702;48.130;-1.696;2022-11-12T04:48:13;10.13;;;9.10;;
17173;SDS011;8702;48.130;-1.696;2022-11-12T04:50:41;9.83;;;8.83;;
17173;SDS011;8702;48.130;-1.696;2022-11-12T04:53:10;10.32;;;8.57;;
17173;SDS011;8702;48.130;-1.696;2022-11-12T04:55:38;9.70;;;8.70;;
17173;SDS011;8702;48.130;-1.696;2022-11-12T04:58:05;9.73;;;8.82;;
17173;SDS011;8702;48.130;-1.696;2022-11-12T05:00:32;9.80;;;8.50;;
17173;SDS011;8702;48.130;-1.696;2022-11-12T05:02:59;10.60;;;8.95;;
17173;SDS011;8702;48.130;-1.696;2022-11-12T05:05:25;12.82;;;9.55;;
17173;SDS011;8702;48.130;-1.696;2022-11-12T05:07:52;10.93;;;9.82;;
17173;SDS011;8702;48.130;-1.696;2022-11-12T05:10:21;10.60;;;8.93;;
17173;SDS011;8702;48.130;-1.696;2022-11-12T05:12:48;10.10;;;9.07;;
17173;SDS011;8702;48.130;-1.696;2022-11-12T05:15:15;10.70;;;9.68;;
17173;SDS011;8702;48.130;-1.696;2022-11-12T05:17:42;10.48;;;9.32;;
17173;SDS011;8702;48.130;-1.696;2022-11-12T05:20:09;9.18;;;8.30;;
17173;SDS011;8702;48.130;-1.696;2022-11-12T05:22:37;9.77;;;8.82;;
17173;SDS011;8702;48.130;-1.696;2022-11-12T05:25:05;10.15;;;8.65;;
17173;SDS011;8702;48.130;-1.696;2022-11-12T05:27:34;9.82;;;8.82;;
17173;SDS011;8702;48.130;-1.696;2022-11-12T05:30:02;9.93;;;8.90;;
17173;SDS011;8702;48.130;-1.696;2022-11-12T05:32:30;9.67;;;8.60;;
17173;SDS011;8702;48.130;-1.696;2022-11-12T05:34:57;8.85;;;8.05;;
17173;SDS011;8702;48.130;-1.696;2022-11-12T05:37:24;10.98;;;9.00;;
17173;SDS011;8702;48.130;-1.696;2022-11-12T05:39:50;10.93;;;8.95;;
17173;SDS011;8702;48.130;-1.696;2022-11-12T05:42:17;10.95;;;8.90;;
17173;SDS011;8702;48.130;-1.696;2022-11-12T05:44:46;11.10;;;8.38;;
17173;SDS011;8702;48.130;-1.696;2022-11-12T05:47:13;9.18;;;8.23;;
17173;SDS011;8702;48.130;-1.696;2022-11-12T05:49:40;9.60;;;8.60;;
17173;SDS011;8702;48.130;-1.696;2022-11-12T05:52:07;9.68;;;8.68;;
17173;SDS011;8702;48.130;-1.696;2022-11-12T05:54:34;10.93;;;9.20;;
17173;SDS011;8702;48.130;-1.696;2022-11-12T05:57:01;9.70;;;8.35;;
17173;SDS011;8702;48.130;-1.696;2022-11-12T05:59:28;9.20;;;8.40;;
17173;SDS011;8702;48.130;-1.696;2022-11-12T06:01:57;10.00;;;8.77;;
17173;SDS011;8702;48.130;-1.696;2022-11-12T06:04:24;9.57;;;8.57;;
17173;SDS011;8702;48.130;-1.696;2022-11-12T06:06:51;10.37;;;8.83;;
17173;SDS011;8702;48.130;-1.696;2022-11-12T06:09:17;9.90;;;8.82;;
17173;SDS011;8702;48.130;-1.696;2022-11-12T06:11:44;10.38;;;8.68;;
17173;SDS011;8702;48.130;-1.696;2022-11-12T06:14:11;9.30;;;8.40;;
17173;SDS011;8702;48.130;-1.696;2022-11-12T06:16:38;11.43;;;8.80;;
17173;SDS011;8702;48.130;-1.696;2022-11-12T06:19:07;9.53;;;8.57;;
17173;SDS011;8702;48.130;-1.696;2022-11-12T06:21:34;9.68;;;8.13;;
17173;SDS011;8702;48.130;-1.696;2022-11-12T06:24:01;9.73;;;8.85;;
17173;SDS011;8702;48.130;-1.696;2022-11-12T06:26:28;9.70;;;8.50;;
17173;SDS011;8702;48.130;-1.696;2022-11-12T06:28:55;9.45;;;8.55;;
17173;SDS011;8702;48.130;-1.696;2022-11-12T06:31:22;8.80;;;7.97;;
17173;SDS011;8702;48.130;-1.696;2022-11-12T06:33:49;9.50;;;8.40;;
17173;SDS011;8702;48.130;-1.696;2022-11-12T06:36:18;9.27;;;7.63;;
17173;SDS011;8702;48.130;-1.696;2022-11-12T06:38:45;8.87;;;7.97;;
17173;SDS011;8702;48.130;-1.696;2022-11-12T06:41:13;8.88;;;8.07;;
17173;SDS011;8702;48.130;-1.696;2022-11-12T06:43:40;8.73;;;7.83;;
17173;SDS011;8702;48.130;-1.696;2022-11-12T06:46:10;8.17;;;7.40;;
17173;SDS011;8702;48.130;-1.696;2022-11-12T06:48:38;8.82;;;7.93;;
17173;SDS011;8702;48.130;-1.696;2022-11-12T06:51:07;9.93;;;8.00;;
17173;SDS011;8702;48.130;-1.696;2022-11-12T06:53:36;10.32;;;8.35;;
17173;SDS011;8702;48.130;-1.696;2022-11-12T06:56:04;9.23;;;8.30;;
17173;SDS011;8702;48.130;-1.696;2022-11-12T06:58:32;9.90;;;8.13;;
17173;SDS011;8702;48.130;-1.696;2022-11-12T07:01:07;9.17;;;8.27;;
17173;SDS011;8702;48.130;-1.696;2022-11-12T07:03:35;9.55;;;8.65;;
17173;SDS011;8702;48.130;-1.696;2022-11-12T07:06:04;8.40;;;7.55;;
17173;SDS011;8702;48.130;-1.696;2022-11-12T07:08:32;8.90;;;8.00;;
17173;SDS011;8702;48.130;-1.696;2022-11-12T07:11:01;9.23;;;8.43;;
17173;SDS011;8702;48.130;-1.696;2022-11-12T07:13:28;9.32;;;8.43;;
17173;SDS011;8702;48.130;-1.696;2022-11-12T07:15:56;8.88;;;7.72;;
17173;SDS011;8702;48.130;-1.696;2022-11-12T07:18:24;9.35;;;8.18;;
17173;SDS011;8702;48.130;-1.696;2022-11-12T07:20:51;10.35;;;8.77;;
17173;SDS011;8702;48.130;-1.696;2022-11-12T07:23:22;9.35;;;8.20;;
17173;SDS011;8702;48.130;-1.696;2022-11-12T07:25:53;9.38;;;8.43;;
17173;SDS011;8702;48.130;-1.696;2022-11-12T07:28:23;9.88;;;8.68;;
17173;SDS011;8702;48.130;-1.696;2022-11-12T07:30:53;9.65;;;8.52;;
17173;SDS011;8702;48.130;-1.696;2022-11-12T07:33:21;9.00;;;8.10;;
17173;SDS011;8702;48.130;-1.696;2022-11-12T07:35:54;10.23;;;8.45;;
17173;SDS011;8702;48.130;-1.696;2022-11-12T07:38:22;10.07;;;8.50;;
17173;SDS011;8702;48.130;-1.696;2022-11-12T07:40:49;8.80;;;7.97;;
17173;SDS011;8702;48.130;-1.696;2022-11-12T07:43:16;9.00;;;8.20;;
17173;SDS011;8702;48.130;-1.696;2022-11-12T07:45:44;10.43;;;8.45;;
17173;SDS011;8702;48.130;-1.696;2022-11-12T07:48:11;9.13;;;8.23;;
17173;SDS011;8702;48.130;-1.696;2022-11-12T07:50:38;9.57;;;7.70;;
17173;SDS011;8702;48.130;-1.696;2022-11-12T07:53:05;9.73;;;7.97;;
17173;SDS011;8702;48.130;-1.696;2022-11-12T07:55:32;9.10;;;8.20;;
17173;SDS011;8702;48.130;-1.696;2022-11-12T07:57:59;9.52;;;8.27;;
17173;SDS011;8702;48.130;-1.696;2022-11-12T08:00:26;8.98;;;7.97;;
17173;SDS011;8702;48.130;-1.696;2022-11-12T08:02:57;9.10;;;8.20;;
17173;SDS011;8702;48.130;-1.696;2022-11-12T08:05:25;9.00;;;7.55;;
17173;SDS011;8702;48.130;-1.696;2022-11-12T08:07:53;8.57;;;7.60;;
17173;SDS011;8702;48.130;-1.696;2022-11-12T08:10:21;8.60;;;7.70;;
17173;SDS011;8702;48.130;-1.696;2022-11-12T08:12:49;8.93;;;7.95;;
17173;SDS011;8702;48.130;-1.696;2022-11-12T08:15:20;9.13;;;8.23;;
17173;SDS011;8702;48.130;-1.696;2022-11-12T08:17:48;9.27;;;7.93;;
17173;SDS011;8702;48.130;-1.696;2022-11-12T08:20:16;9.63;;;7.75;;
17173;SDS011;8702;48.130;-1.696;2022-11-12T08:22:43;8.93;;;7.60;;
17173;SDS011;8702;48.130;-1.696;2022-11-12T08:25:10;8.77;;;7.75;;
17173;SDS011;8702;48.130;-1.696;2022-11-12T08:27:37;9.43;;;8.00;;
17173;SDS011;8702;48.130;-1.696;2022-11-12T08:30:04;9.57;;;7.88;;
17173;SDS011;8702;48.130;-1.696;2022-11-12T08:32:32;9.68;;;7.95;;
17173;SDS011;8702;48.130;-1.696;2022-11-12T08:34:59;8.20;;;7.38;;
17173;SDS011;8702;48.130;-1.696;2022-11-12T08:37:27;8.53;;;7.73;;
17173;SDS011;8702;48.130;-1.696;2022-11-12T08:39:54;8.68;;;7.70;;
17173;SDS011;8702;48.130;-1.696;2022-11-12T08:42:21;9.77;;;7.32;;
17173;SDS011;8702;48.130;-1.696;2022-11-12T08:44:48;9.90;;;7.85;;
17173;SDS011;8702;48.130;-1.696;2022-11-12T08:47:18;8.87;;;7.97;;
17173;SDS011;8702;48.130;-1.696;2022-11-12T08:49:45;8.38;;;7.55;;
17173;SDS011;8702;48.130;-1.696;2022-11-12T08:52:12;9.90;;;7.68;;
17173;SDS011;8702;48.130;-1.696;2022-11-12T08:54:41;9.38;;;7.60;;
17173;SDS011;8702;48.130;-1.696;2022-11-12T08:57:08;10.10;;;8.15;;
17173;SDS011;8702;48.130;-1.696;2022-11-12T08:59:35;8.57;;;7.38;;
17173;SDS011;8702;48.130;-1.696;2022-11-12T09:02:02;8.55;;;7.60;;
17173;SDS011;8702;48.130;-1.696;2022-11-12T09:04:30;8.57;;;7.28;;
17173;SDS011;8702;48.130;-1.696;2022-11-12T09:06:57;8.85;;;7.70;;
17173;SDS011;8702;48.130;-1.696;2022-11-12T09:09:24;8.77;;;7.22;;
17173;SDS011;8702;48.130;-1.696;2022-11-12T09:11:52;8.48;;;7.45;;
17173;SDS011;8702;48.130;-1.696;2022-11-12T09:14:20;10.43;;;7.68;;
17173;SDS011;8702;48.130;-1.696;2022-11-12T09:16:46;9.07;;;7.63;;
17173;SDS011;8702;48.130;-1.696;2022-11-12T09:19:14;8.55;;;7.65;;
17173;SDS011;8702;48.130;-1.696;2022-11-12T09:21:41;8.80;;;7.50;;
17173;SDS011;8702;48.130;-1.696;2022-11-12T09:24:08;8.63;;;7.72;;
17173;SDS011;8702;48.130;-1.696;2022-11-12T09:26:35;10.07;;;7.85;;
17173;SDS011;8702;48.130;-1.696;2022-11-12T09:29:03;9.10;;;8.17;;
17173;SDS011;8702;48.130;-1.696;2022-11-12T09:31:30;11.20;;;8.48;;
17173;SDS011;8702;48.130;-1.696;2022-11-12T09:33:57;8.45;;;7.22;;
17173;SDS011;8702;48.130;-1.696;2022-11-12T09:36:24;8.02;;;7.10;;
17173;SDS011;8702;48.130;-1.696;2022-11-12T09:38:51;9.57;;;7.60;;
17173;SDS011;8702;48.130;-1.696;2022-11-12T09:41:19;8.53;;;7.10;;
17173;SDS011;8702;48.130;-1.696;2022-11-12T09:43:51;8.60;;;7.35;;
17173;SDS011;8702;48.130;-1.696;2022-11-12T09:46:25;8.55;;;7.00;;
17173;SDS011;8702;48.130;-1.696;2022-11-12T09:49:03;8.05;;;7.25;;
17173;SDS011;8702;48.130;-1.696;2022-11-12T09:51:37;8.23;;;7.38;;
17173;SDS011;8702;48.130;-1.696;2022-11-12T09:54:10;11.27;;;8.07;;
17173;SDS011;8702;48.130;-1.696;2022-11-12T09:56:39;8.63;;;7.13;;
17173;SDS011;8702;48.130;-1.696;2022-11-12T09:59:08;8.07;;;7.13;;
17173;SDS011;8702;48.130;-1.696;2022-11-12T10:01:39;8.77;;;6.63;;
17173;SDS011;8702;48.130;-1.696;2022-11-12T10:04:21;7.47;;;6.78;;
17173;SDS011;8702;48.130;-1.696;2022-11-12T10:07:01;7.75;;;6.95;;
17173;SDS011;8702;48.130;-1.696;2022-11-12T10:09:34;10.07;;;6.80;;
17173;SDS011;8702;48.130;-1.696;2022-11-12T10:12:10;11.95;;;7.03;;
17173;SDS011;8702;48.130;-1.696;2022-11-12T10:15:08;8.88;;;6.90;;
17173;SDS011;8702;48.130;-1.696;2022-11-12T10:18:09;10.35;;;7.20;;
17173;SDS011;8702;48.130;-1.696;2022-11-12T10:20:42;7.70;;;6.88;;
17173;SDS011;8702;48.130;-1.696;2022-11-12T10:23:14;7.97;;;7.18;;
17173;SDS011;8702;48.130;-1.696;2022-11-12T10:25:44;10.13;;;7.30;;
17173;SDS011;8702;48.130;-1.696;2022-11-12T10:28:23;9.60;;;7.20;;
17173;SDS011;8702;48.130;-1.696;2022-11-12T10:30:54;8.70;;;7.28;;
17173;SDS011;8702;48.130;-1.696;2022-11-12T10:33:38;7.28;;;6.53;;
17173;SDS011;8702;48.130;-1.696;2022-11-12T10:36:14;7.22;;;6.53;;
17173;SDS011;8702;48.130;-1.696;2022-11-12T10:38:46;7.70;;;6.90;;
17173;SDS011;8702;48.130;-1.696;2022-11-12T10:41:17;7.65;;;6.82;;
17173;SDS011;8702;48.130;-1.696;2022-11-12T10:43:52;7.90;;;6.80;;
17173;SDS011;8702;48.130;-1.696;2022-11-12T10:46:21;7.40;;;6.63;;
17173;SDS011;8702;48.130;-1.696;2022-11-12T10:48:55;7.60;;;6.47;;
17173;SDS011;8702;48.130;-1.696;2022-11-12T10:51:26;7.93;;;6.38;;
17173;SDS011;8702;48.130;-1.696;2022-11-12T10:53:55;9.07;;;6.78;;
17173;SDS011;8702;48.130;-1.696;2022-11-12T10:56:23;8.68;;;6.80;;
17173;SDS011;8702;48.130;-1.696;2022-11-12T10:59:07;7.10;;;6.40;;
17173;SDS011;8702;48.130;-1.696;2022-11-12T11:01:36;8.77;;;7.20;;
17173;SDS011;8702;48.130;-1.696;2022-11-12T11:04:07;8.80;;;6.57;;
17173;SDS011;8702;48.130;-1.696;2022-11-12T11:06:42;8.85;;;6.55;;
17173;SDS011;8702;48.130;-1.696;2022-11-12T11:09:13;7.78;;;5.82;;
17173;SDS011;8702;48.130;-1.696;2022-11-12T11:11:48;7.35;;;6.60;;
17173;SDS011;8702;48.130;-1.696;2022-11-12T11:14:22;8.18;;;6.13;;
17173;SDS011;8702;48.130;-1.696;2022-11-12T11:16:55;8.23;;;6.00;;
17173;SDS011;8702;48.130;-1.696;2022-11-12T11:19:30;7.22;;;6.32;;
17173;SDS011;8702;48.130;-1.696;2022-11-12T11:24:56;7.68;;;6.60;;
17173;SDS011;8702;48.130;-1.696;2022-11-12T11:27:34;7.47;;;6.28;;
17173;SDS011;8702;48.130;-1.696;2022-11-12T11:30:07;7.60;;;6.22;;
17173;SDS011;8702;48.130;-1.696;2022-11-12T11:32:43;9.15;;;6.30;;
17173;SDS011;8702;48.130;-1.696;2022-11-12T11:35:37;7.80;;;6.00;;
17173;SDS011;8702;48.130;-1.696;2022-11-12T11:38:24;7.00;;;5.63;;
17173;SDS011;8702;48.130;-1.696;2022-11-12T11:41:02;8.10;;;5.95;;
17173;SDS011;8702;48.130;-1.696;2022-11-12T11:43:57;10.32;;;6.30;;
17173;SDS011;8702;48.130;-1.696;2022-11-12T11:46:42;7.35;;;5.75;;
17173;SDS011;8702;48.130;-1.696;2022-11-12T11:49:25;8.30;;;5.78;;
17173;SDS011;8702;48.130;-1.696;2022-11-12T11:52:00;8.70;;;6.10;;
17173;SDS011;8702;48.130;-1.696;2022-11-12T11:54:34;6.53;;;5.65;;
17173;SDS011;8702;48.130;-1.696;2022-11-12T11:57:18;8.93;;;6.10;;
17173;SDS011;8702;48.130;-1.696;2022-11-12T11:59:58;9.18;;;5.93;;
17173;SDS011;8702;48.130;-1.696;2022-11-12T12:05:22;8.65;;;5.70;;
17173;SDS011;8702;48.130;-1.696;2022-11-12T12:08:01;8.07;;;5.97;;
17173;SDS011;8702;48.130;-1.696;2022-11-12T12:10:34;8.07;;;6.28;;
17173;SDS011;8702;48.130;-1.696;2022-11-12T12:13:17;8.60;;;6.10;;
17173;SDS011;8702;48.130;-1.696;2022-11-12T12:15:56;8.85;;;6.28;;
17173;SDS011;8702;48.130;-1.696;2022-11-12T12:18:37;9.00;;;6.25;;
17173;SDS011;8702;48.130;-1.696;2022-11-12T12:21:11;9.67;;;5.97;;
17173;SDS011;8702;48.130;-1.696;2022-11-12T12:23:44;9.23;;;5.70;;
17173;SDS011;8702;48.130;-1.696;2022-11-12T12:26:16;9.52;;;6.03;;
17173;SDS011;8702;48.130;-1.696;2022-11-12T12:28:46;8.10;;;5.63;;
17173;SDS011;8702;48.130;-1.696;2022-11-12T12:31:19;7.85;;;5.78;;
17173;SDS011;8702;48.130;-1.696;2022-11-12T12:33:51;8.43;;;5.95;;
17173;SDS011;8702;48.130;-1.696;2022-11-12T12:36:22;10.50;;;5.75;;
17173;SDS011;8702;48.130;-1.696;2022-11-12T12:39:01;7.40;;;5.78;;
17173;SDS011;8702;48.130;-1.696;2022-11-12T12:41:36;8.13;;;5.57;;
17173;SDS011;8702;48.130;-1.696;2022-11-12T12:44:09;8.18;;;5.80;;
17173;SDS011;8702;48.130;-1.696;2022-11-12T12:46:37;6.32;;;5.25;;
17173;SDS011;8702;48.130;-1.696;2022-11-12T12:49:09;10.38;;;5.82;;
17173;SDS011;8702;48.130;-1.696;2022-11-12T12:51:40;7.70;;;5.60;;
17173;SDS011;8702;48.130;-1.696;2022-11-12T13:02:51;6.38;;;4.90;;
17173;SDS011;8702;48.130;-1.696;2022-11-12T13:05:26;8.07;;;5.05;;
17173;SDS011;8702;48.130;-1.696;2022-11-12T13:07:55;6.53;;;4.80;;
17173;SDS011;8702;48.130;-1.696;2022-11-12T13:13:28;7.15;;;4.60;;
17173;SDS011;8702;48.130;-1.696;2022-11-12T13:15:58;5.82;;;4.28;;
17173;SDS011;8702;48.130;-1.696;2022-11-12T13:21:26;5.97;;;4.75;;
17173;SDS011;8702;48.130;-1.696;2022-11-12T13:23:54;5.38;;;4.43;;
17173;SDS011;8702;48.130;-1.696;2022-11-12T13:32:30;6.47;;;4.33;;
17173;SDS011;8702;48.130;-1.696;2022-11-12T13:35:12;7.35;;;4.55;;
17173;SDS011;8702;48.130;-1.696;2022-11-12T13:38:09;7.82;;;4.90;;
17173;SDS011;8702;48.130;-1.696;2022-11-12T13:40:41;7.82;;;4.20;;
17173;SDS011;8702;48.130;-1.696;2022-11-12T13:43:17;9.23;;;4.55;;
17173;SDS011;8702;48.130;-1.696;2022-11-12T13:45:57;9.13;;;4.35;;
17173;SDS011;8702;48.130;-1.696;2022-11-12T13:48:32;6.63;;;4.43;;
17173;SDS011;8702;48.130;-1.696;2022-11-12T13:51:05;7.18;;;4.15;;
17173;SDS011;8702;48.130;-1.696;2022-11-12T13:53:39;6.47;;;4.15;;
17173;SDS011;8702;48.130;-1.696;2022-11-12T13:56:07;9.15;;;4.30;;
17173;SDS011;8702;48.130;-1.696;2022-11-12T13:58:36;7.55;;;4.13;;
17173;SDS011;8702;48.130;-1.696;2022-11-12T14:01:06;7.88;;;4.10;;
17173;SDS011;8702;48.130;-1.696;2022-11-12T14:03:34;7.65;;;3.67;;
17173;SDS011;8702;48.130;-1.696;2022-11-12T14:06:13;8.10;;;3.97;;
17173;SDS011;8702;48.130;-1.696;2022-11-12T14:08:48;10.75;;;3.97;;
17173;SDS011;8702;48.130;-1.696;2022-11-12T14:11:39;5.47;;;3.72;;
17173;SDS011;8702;48.130;-1.696;2022-11-12T14:14:25;7.53;;;3.90;;
17173;SDS011;8702;48.130;-1.696;2022-11-12T14:17:04;6.15;;;3.88;;
17173;SDS011;8702;48.130;-1.696;2022-11-12T14:19:49;6.07;;;3.72;;
17173;SDS011;8702;48.130;-1.696;2022-11-12T14:22:37;7.47;;;3.67;;
17173;SDS011;8702;48.130;-1.696;2022-11-12T14:25:12;7.50;;;3.80;;
17173;SDS011;8702;48.130;-1.696;2022-11-12T14:27:43;6.63;;;3.63;;
17173;SDS011;8702;48.130;-1.696;2022-11-12T14:30:11;6.60;;;3.60;;
17173;SDS011;8702;48.130;-1.696;2022-11-12T14:32:42;6.97;;;3.67;;
17173;SDS011;8702;48.130;-1.696;2022-11-12T14:35:17;7.80;;;3.92;;
17173;SDS011;8702;48.130;-1.696;2022-11-12T14:37:56;8.88;;;3.90;;
17173;SDS011;8702;48.130;-1.696;2022-11-12T14:40:26;5.73;;;3.80;;
17173;SDS011;8702;48.130;-1.696;2022-11-12T14:42:55;6.95;;;3.78;;
17173;SDS011;8702;48.130;-1.696;2022-11-12T14:45:22;7.38;;;4.05;;
17173;SDS011;8702;48.130;-1.696;2022-11-12T14:47:51;7.10;;;3.83;;
17173;SDS011;8702;48.130;-1.696;2022-11-12T14:50:20;9.13;;;4.35;;
17173;SDS011;8702;48.130;-1.696;2022-11-12T14:52:52;9.55;;;4.47;;
17173;SDS011;8702;48.130;-1.696;2022-11-12T14:55:25;8.07;;;4.10;;
17173;SDS011;8702;48.130;-1.696;2022-11-12T14:57:55;6.72;;;4.07;;
17173;SDS011;8702;48.130;-1.696;2022-11-12T15:00:37;8.07;;;3.85;;
17173;SDS011;8702;48.130;-1.696;2022-11-12T15:03:10;6.90;;;3.95;;
17173;SDS011;8702;48.130;-1.696;2022-11-12T15:05:53;8.57;;;4.28;;
17173;SDS011;8702;48.130;-1.696;2022-11-12T15:08:28;7.53;;;4.03;;
17173;SDS011;8702;48.130;-1.696;2022-11-12T15:10:57;7.40;;;3.83;;
17173;SDS011;8702;48.130;-1.696;2022-11-12T15:13:44;8.02;;;4.28;;
17173;SDS011;8702;48.130;-1.696;2022-11-12T15:16:15;8.33;;;4.30;;
17173;SDS011;8702;48.130;-1.696;2022-11-12T15:18:49;7.13;;;3.83;;
17173;SDS011;8702;48.130;-1.696;2022-11-12T15:21:29;7.15;;;3.83;;
17173;SDS011;8702;48.130;-1.696;2022-11-12T15:23:58;6.75;;;3.80;;
17173;SDS011;8702;48.130;-1.696;2022-11-12T15:26:31;8.85;;;4.53;;
17173;SDS011;8702;48.130;-1.696;2022-11-12T15:29:00;5.55;;;4.18;;